sensor_id;sensor_type;location;lat;lon;timestamp;temperature;humidity
17178;DHT22;8704;52.006;4.374;2023-03-14T00:01:11;10.40;1.00
17178;DHT22;8704;52.006;4.374;2023-03-14T00:03:40;10.40;1.00
17178;DHT22;8704;52.006;4.374;2023-03-14T00:06:09;10.70;1.00
17178;DHT22;8704;52.006;4.374;2023-03-14T00:08:38;10.40;1.00
17178;DHT22;8704;52.006;4.374;2023-03-14T00:11:08;10.30;1.00
17178;DHT22;8704;52.006;4.374;2023-03-14T00:13:37;10.20;1.00
17178;DHT22;8704;52.006;4.374;2023-03-14T00:16:07;10.40;1.00
17178;DHT22;8704;52.006;4.374;2023-03-14T00:18:35;10.30;1.00
17178;DHT22;8704;52.006;4.374;2023-03-14T00:21:07;10.30;1.00
17178;DHT22;8704;52.006;4.374;2023-03-14T00:23:37;10.30;1.00
17178;DHT22;8704;52.006;4.374;2023-03-14T00:26:06;10.30;1.00
17178;DHT22;8704;52.006;4.374;2023-03-14T00:28:35;10.30;1.00
17178;DHT22;8704;52.006;4.374;2023-03-14T00:31:04;10.30;1.00
17178;DHT22;8704;52.006;4.374;2023-03-14T00:33:33;10.30;1.00
17178;DHT22;8704;52.006;4.374;2023-03-14T00:36:07;10.30;1.00
17178;DHT22;8704;52.006;4.374;2023-03-14T00:38:37;10.20;1.00
17178;DHT22;8704;52.006;4.374;2023-03-14T00:41:06;10.20;1.00
17178;DHT22;8704;52.006;4.374;2023-03-14T00:43:35;10.20;1.00
17178;DHT22;8704;52.006;4.374;2023-03-14T00:46:04;10.20;1.00
17178;DHT22;8704;52.006;4.374;2023-03-14T00:48:33;10.20;1.00
17178;DHT22;8704;52.006;4.374;2023-03-14T00:51:02;10.20;1.00
17178;DHT22;8704;52.006;4.374;2023-03-14T00:53:35;10.20;1.00
17178;DHT22;8704;52.006;4.374;2023-03-14T00:56:04;10.10;1.00
17178;DHT22;8704;52.006;4.374;2023-03-14T00:58:33;10.10;1.00
17178;DHT22;8704;52.006;4.374;2023-03-14T01:01:05;10.10;1.00
17178;DHT22;8704;52.006;4.374;2023-03-14T01:03:34;10.10;1.00
17178;DHT22;8704;52.006;4.374;2023-03-14T01:06:09;10.10;1.00
17178;DHT22;8704;52.006;4.374;2023-03-14T01:08:40;10.10;1.00
17178;DHT22;8704;52.006;4.374;2023-03-14T01:11:09;10.10;1.00
17178;DHT22;8704;52.006;4.374;2023-03-14T01:13:38;10.10;1.00
17178;DHT22;8704;52.006;4.374;2023-03-14T01:16:08;10.10;1.00
17178;DHT22;8704;52.006;4.374;2023-03-14T01:18:38;10.10;1.00
17178;DHT22;8704;52.006;4.374;2023-03-14T01:21:11;10.00;1.00
17178;DHT22;8704;52.006;4.374;2023-03-14T01:23:41;10.00;1.00
17178;DHT22;8704;52.006;4.374;2023-03-14T01:26:11;10.00;1.00
17178;DHT22;8704;52.006;4.374;2023-03-14T01:28:40;10.00;1.00
17178;DHT22;8704;52.006;4.374;2023-03-14T01:31:10;10.00;1.00
17178;DHT22;8704;52.006;4.374;2023-03-14T01:33:38;10.20;1.00
17178;DHT22;8704;52.006;4.374;2023-03-14T01:36:08;10.00;1.00
17178;DHT22;8704;52.006;4.374;2023-03-14T01:38:38;10.00;1.00
17178;DHT22;8704;52.006;4.374;2023-03-14T01:41:12;10.10;1.00
17178;DHT22;8704;52.006;4.374;2023-03-14T01:43:41;10.40;1.00
17178;DHT22;8704;52.006;4.374;2023-03-14T01:46:28;10.00;1.00
17178;DHT22;8704;52.006;4.374;2023-03-14T01:49:09;10.00;1.00
17178;DHT22;8704;52.006;4.374;2023-03-14T01:51:44;9.90;1.00
17178;DHT22;8704;52.006;4.374;2023-03-14T01:54:17;10.00;1.00
17178;DHT22;8704;52.006;4.374;2023-03-14T01:56:53;10.00;1.00
17178;DHT22;8704;52.006;4.374;2023-03-14T01:59:24;9.90;1.00
17178;DHT22;8704;52.006;4.374;2023-03-14T02:01:52;10.00;1.00
17178;DHT22;8704;52.006;4.374;2023-03-14T02:04:22;10.20;1.00
17178;DHT22;8704;52.006;4.374;2023-03-14T02:06:56;10.00;1.00
17178;DHT22;8704;52.006;4.374;2023-03-14T02:09:26;10.10;1.00
17178;DHT22;8704;52.006;4.374;2023-03-14T02:11:56;10.00;1.00
17178;DHT22;8704;52.006;4.374;2023-03-14T02:14:30;10.10;1.00
17178;DHT22;8704;52.006;4.374;2023-03-14T02:16:59;10.00;1.00
17178;DHT22;8704;52.006;4.374;2023-03-14T02:19:38;10.20;1.00
17178;DHT22;8704;52.006;4.374;2023-03-14T02:22:14;10.50;1.00
17178;DHT22;8704;52.006;4.374;2023-03-14T02:24:49;9.90;1.00
17178;DHT22;8704;52.006;4.374;2023-03-14T02:27:20;10.00;1.00
17178;DHT22;8704;52.006;4.374;2023-03-14T02:29:53;9.90;1.00
17178;DHT22;8704;52.006;4.374;2023-03-14T02:32:24;9.90;1.00
17178;DHT22;8704;52.006;4.374;2023-03-14T02:34:55;9.90;1.00
17178;DHT22;8704;52.006;4.374;2023-03-14T02:37:28;9.90;1.00
17178;DHT22;8704;52.006;4.374;2023-03-14T02:39:58;9.90;1.00
17178;DHT22;8704;52.006;4.374;2023-03-14T02:42:27;10.00;1.00
17178;DHT22;8704;52.006;4.374;2023-03-14T02:45:33;9.80;1.00
17178;DHT22;8704;52.006;4.374;2023-03-14T02:47:51;9.80;1.00
17178;DHT22;8704;52.006;4.374;2023-03-14T02:50:23;9.80;1.00
17178;DHT22;8704;52.006;4.374;2023-03-14T02:52:52;9.80;1.00
17178;DHT22;8704;52.006;4.374;2023-03-14T02:55:21;9.80;1.00
17178;DHT22;8704;52.006;4.374;2023-03-14T02:57:50;9.80;1.00
17178;DHT22;8704;52.006;4.374;2023-03-14T03:00:19;9.80;1.00
17178;DHT22;8704;52.006;4.374;2023-03-14T03:02:47;9.80;1.00
17178;DHT22;8704;52.006;4.374;2023-03-14T03:05:16;9.80;1.00
17178;DHT22;8704;52.006;4.374;2023-03-14T03:07:44;9.80;1.00
17178;DHT22;8704;52.006;4.374;2023-03-14T03:10:12;9.90;1.00
17178;DHT22;8704;52.006;4.374;2023-03-14T03:12:40;9.80;1.00
17178;DHT22;8704;52.006;4.374;2023-03-14T03:15:11;9.80;1.00
17178;DHT22;8704;52.006;4.374;2023-03-14T03:17:39;9.80;1.00
17178;DHT22;8704;52.006;4.374;2023-03-14T03:20:08;9.80;1.00
17178;DHT22;8704;52.006;4.374;2023-03-14T03:22:37;9.80;1.00
17178;DHT22;8704;52.006;4.374;2023-03-14T03:25:06;9.80;1.00
17178;DHT22;8704;52.006;4.374;2023-03-14T03:27:36;9.80;1.00
17178;DHT22;8704;52.006;4.374;2023-03-14T03:30:06;9.80;1.00
17178;DHT22;8704;52.006;4.374;2023-03-14T03:32:35;9.80;1.00
17178;DHT22;8704;52.006;4.374;2023-03-14T03:35:05;9.80;1.00
17178;DHT22;8704;52.006;4.374;2023-03-14T03:37:34;9.90;1.00
17178;DHT22;8704;52.006;4.374;2023-03-14T03:40:03;9.90;1.00
17178;DHT22;8704;52.006;4.374;2023-03-14T03:42:33;9.80;1.00
17178;DHT22;8704;52.006;4.374;2023-03-14T03:45:02;9.90;1.00
17178;DHT22;8704;52.006;4.374;2023-03-14T03:47:31;9.80;1.00
17178;DHT22;8704;52.006;4.374;2023-03-14T03:50:00;9.80;1.00
17178;DHT22;8704;52.006;4.374;2023-03-14T03:52:29;9.80;1.00
17178;DHT22;8704;52.006;4.374;2023-03-14T03:54:57;9.80;1.00
17178;DHT22;8704;52.006;4.374;2023-03-14T03:57:25;9.80;1.00
17178;DHT22;8704;52.006;4.374;2023-03-14T03:59:53;10.90;1.00
17178;DHT22;8704;52.006;4.374;2023-03-14T04:02:21;9.80;1.00
17178;DHT22;8704;52.006;4.374;2023-03-14T04:04:49;9.80;1.00
17178;DHT22;8704;52.006;4.374;2023-03-14T04:07:19;9.80;1.00
17178;DHT22;8704;52.006;4.374;2023-03-14T04:09:47;9.80;1.00
17178;DHT22;8704;52.006;4.374;2023-03-14T04:12:15;9.70;1.00
17178;DHT22;8704;52.006;4.374;2023-03-14T04:14:43;9.70;37.40
17178;DHT22;8704;52.006;4.374;2023-03-14T04:17:11;9.80;92.90
17178;DHT22;8704;52.006;4.374;2023-03-14T04:19:39;9.70;99.90
17178;DHT22;8704;52.006;4.374;2023-03-14T04:22:08;9.70;99.90
17178;DHT22;8704;52.006;4.374;2023-03-14T04:24:38;9.70;99.90
17178;DHT22;8704;52.006;4.374;2023-03-14T04:27:06;9.60;99.90
17178;DHT22;8704;52.006;4.374;2023-03-14T04:29:34;9.60;99.90
17178;DHT22;8704;52.006;4.374;2023-03-14T04:32:03;9.90;99.90
17178;DHT22;8704;52.006;4.374;2023-03-14T04:34:31;9.60;99.90
17178;DHT22;8704;52.006;4.374;2023-03-14T04:36:59;9.60;99.90
17178;DHT22;8704;52.006;4.374;2023-03-14T04:39:27;9.50;99.90
17178;DHT22;8704;52.006;4.374;2023-03-14T04:41:57;9.50;99.90
17178;DHT22;8704;52.006;4.374;2023-03-14T04:44:25;9.50;1.00
17178;DHT22;8704;52.006;4.374;2023-03-14T04:46:53;9.50;1.00
17178;DHT22;8704;52.006;4.374;2023-03-14T04:49:22;9.50;1.00
17178;DHT22;8704;52.006;4.374;2023-03-14T04:51:50;9.50;1.00
17178;DHT22;8704;52.006;4.374;2023-03-14T04:54:19;9.50;1.00
17178;DHT22;8704;52.006;4.374;2023-03-14T04:56:47;9.30;1.00
17178;DHT22;8704;52.006;4.374;2023-03-14T04:59:17;9.40;1.00
17178;DHT22;8704;52.006;4.374;2023-03-14T05:01:45;9.50;1.00
17178;DHT22;8704;52.006;4.374;2023-03-14T05:04:14;9.40;1.00
17178;DHT22;8704;52.006;4.374;2023-03-14T05:06:42;9.40;1.00
17178;DHT22;8704;52.006;4.374;2023-03-14T05:09:11;9.30;1.00
17178;DHT22;8704;52.006;4.374;2023-03-14T05:11:39;9.50;1.00
17178;DHT22;8704;52.006;4.374;2023-03-14T05:14:07;10.60;1.00
17178;DHT22;8704;52.006;4.374;2023-03-14T05:16:36;9.30;1.00
17178;DHT22;8704;52.006;4.374;2023-03-14T05:19:04;9.80;1.00
17178;DHT22;8704;52.006;4.374;2023-03-14T05:21:32;9.40;1.00
17178;DHT22;8704;52.006;4.374;2023-03-14T05:24:00;9.10;1.00
17178;DHT22;8704;52.006;4.374;2023-03-14T05:26:28;9.50;1.00
17178;DHT22;8704;52.006;4.374;2023-03-14T05:28:56;9.00;1.00
17178;DHT22;8704;52.006;4.374;2023-03-14T05:31:24;8.80;1.00
17178;DHT22;8704;52.006;4.374;2023-03-14T05:33:54;8.80;1.00
17178;DHT22;8704;52.006;4.374;2023-03-14T05:36:22;9.50;99.90
17178;DHT22;8704;52.006;4.374;2023-03-14T05:38:50;8.60;99.90
17178;DHT22;8704;52.006;4.374;2023-03-14T05:41:18;8.50;99.90
17178;DHT22;8704;52.006;4.374;2023-03-14T05:43:46;8.70;99.90
17178;DHT22;8704;52.006;4.374;2023-03-14T05:46:14;8.40;99.90
17178;DHT22;8704;52.006;4.374;2023-03-14T05:48:42;8.30;99.90
17178;DHT22;8704;52.006;4.374;2023-03-14T05:51:12;9.20;99.90
17178;DHT22;8704;52.006;4.374;2023-03-14T05:53:40;8.30;99.90
17178;DHT22;8704;52.006;4.374;2023-03-14T05:56:09;8.30;99.90
17178;DHT22;8704;52.006;4.374;2023-03-14T05:58:37;8.10;99.90
17178;DHT22;8704;52.006;4.374;2023-03-14T06:01:06;8.70;99.90
17178;DHT22;8704;52.006;4.374;2023-03-14T06:03:35;8.10;99.90
17178;DHT22;8704;52.006;4.374;2023-03-14T06:06:03;8.20;99.90
17178;DHT22;8704;52.006;4.374;2023-03-14T06:08:32;8.10;99.90
17178;DHT22;8704;52.006;4.374;2023-03-14T06:11:03;8.50;99.90
17178;DHT22;8704;52.006;4.374;2023-03-14T06:13:31;8.00;99.90
17178;DHT22;8704;52.006;4.374;2023-03-14T06:15:59;8.00;99.90
17178;DHT22;8704;52.006;4.374;2023-03-14T06:18:27;8.10;99.90
17178;DHT22;8704;52.006;4.374;2023-03-14T06:20:55;8.10;99.90
17178;DHT22;8704;52.006;4.374;2023-03-14T06:23:23;8.10;99.90
17178;DHT22;8704;52.006;4.374;2023-03-14T06:25:53;7.90;99.90
17178;DHT22;8704;52.006;4.374;2023-03-14T06:28:21;7.80;1.00
17178;DHT22;8704;52.006;4.374;2023-03-14T06:30:51;7.80;99.90
17178;DHT22;8704;52.006;4.374;2023-03-14T06:33:19;7.70;99.90
17178;DHT22;8704;52.006;4.374;2023-03-14T06:35:47;8.10;1.00
17178;DHT22;8704;52.006;4.374;2023-03-14T06:38:15;7.70;1.00
17178;DHT22;8704;52.006;4.374;2023-03-14T06:40:43;8.30;99.90
17178;DHT22;8704;52.006;4.374;2023-03-14T06:43:13;7.70;99.90
17178;DHT22;8704;52.006;4.374;2023-03-14T06:45:41;7.70;99.90
17178;DHT22;8704;52.006;4.374;2023-03-14T06:48:09;7.70;99.90
17178;DHT22;8704;52.006;4.374;2023-03-14T06:50:37;7.70;99.90
17178;DHT22;8704;52.006;4.374;2023-03-14T06:53:05;7.60;99.90
17178;DHT22;8704;52.006;4.374;2023-03-14T06:55:33;7.60;99.90
17178;DHT22;8704;52.006;4.374;2023-03-14T06:58:01;7.60;99.90
17178;DHT22;8704;52.006;4.374;2023-03-14T07:00:30;7.70;99.90
17178;DHT22;8704;52.006;4.374;2023-03-14T07:02:58;7.60;99.90
17178;DHT22;8704;52.006;4.374;2023-03-14T07:05:26;7.60;99.90
17178;DHT22;8704;52.006;4.374;2023-03-14T07:07:54;7.60;99.90
17178;DHT22;8704;52.006;4.374;2023-03-14T07:10:23;7.60;99.90
17178;DHT22;8704;52.006;4.374;2023-03-14T07:12:51;7.80;99.90
17178;DHT22;8704;52.006;4.374;2023-03-14T07:15:20;8.10;99.90
17178;DHT22;8704;52.006;4.374;2023-03-14T07:17:49;7.60;99.90
17178;DHT22;8704;52.006;4.374;2023-03-14T07:20:18;7.60;99.90
17178;DHT22;8704;52.006;4.374;2023-03-14T07:22:47;7.60;99.90
17178;DHT22;8704;52.006;4.374;2023-03-14T07:25:16;7.90;99.90
17178;DHT22;8704;52.006;4.374;2023-03-14T07:27:44;7.60;99.90
17178;DHT22;8704;52.006;4.374;2023-03-14T07:30:14;7.50;99.90
17178;DHT22;8704;52.006;4.374;2023-03-14T07:32:42;7.50;99.90
17178;DHT22;8704;52.006;4.374;2023-03-14T07:35:11;7.50;99.90
17178;DHT22;8704;52.006;4.374;2023-03-14T07:37:39;7.50;99.90
17178;DHT22;8704;52.006;4.374;2023-03-14T07:40:08;7.40;99.90
17178;DHT22;8704;52.006;4.374;2023-03-14T07:42:38;7.40;99.90
17178;DHT22;8704;52.006;4.374;2023-03-14T07:45:08;7.30;99.90
17178;DHT22;8704;52.006;4.374;2023-03-14T07:47:36;7.20;99.90
17178;DHT22;8704;52.006;4.374;2023-03-14T07:50:05;7.10;99.90
17178;DHT22;8704;52.006;4.374;2023-03-14T07:52:34;7.20;99.90
17178;DHT22;8704;52.006;4.374;2023-03-14T07:55:03;7.20;99.90
17178;DHT22;8704;52.006;4.374;2023-03-14T07:57:31;7.00;99.90
17178;DHT22;8704;52.006;4.374;2023-03-14T07:59:59;7.00;99.90
17178;DHT22;8704;52.006;4.374;2023-03-14T08:02:27;6.90;99.90
17178;DHT22;8704;52.006;4.374;2023-03-14T08:04:55;6.90;99.90
17178;DHT22;8704;52.006;4.374;2023-03-14T08:07:23;7.00;99.90
17178;DHT22;8704;52.006;4.374;2023-03-14T08:09:52;6.70;56.20
17178;DHT22;8704;52.006;4.374;2023-03-14T08:12:20;6.70;26.40
17178;DHT22;8704;52.006;4.374;2023-03-14T08:14:48;6.80;86.90
17178;DHT22;8704;52.006;4.374;2023-03-14T08:17:16;6.80;31.30
17178;DHT22;8704;52.006;4.374;2023-03-14T08:19:44;6.70;89.20
17178;DHT22;8704;52.006;4.374;2023-03-14T08:22:12;7.10;59.50
17178;DHT22;8704;52.006;4.374;2023-03-14T08:24:42;6.70;56.90
17178;DHT22;8704;52.006;4.374;2023-03-14T08:27:12;6.60;1.00
17178;DHT22;8704;52.006;4.374;2023-03-14T08:29:41;6.70;29.10
17178;DHT22;8704;52.006;4.374;2023-03-14T08:32:09;6.60;10.10
17178;DHT22;8704;52.006;4.374;2023-03-14T08:34:37;6.60;16.90
17178;DHT22;8704;52.006;4.374;2023-03-14T08:37:05;6.70;1.00
17178;DHT22;8704;52.006;4.374;2023-03-14T08:39:51;6.40;1.00
17178;DHT22;8704;52.006;4.374;2023-03-14T08:42:20;6.40;1.00
17178;DHT22;8704;52.006;4.374;2023-03-14T08:44:48;6.50;1.00
17178;DHT22;8704;52.006;4.374;2023-03-14T08:47:16;6.90;1.00
17178;DHT22;8704;52.006;4.374;2023-03-14T08:49:44;6.60;1.00
17178;DHT22;8704;52.006;4.374;2023-03-14T08:52:12;6.70;1.00
17178;DHT22;8704;52.006;4.374;2023-03-14T08:54:43;6.80;1.00
17178;DHT22;8704;52.006;4.374;2023-03-14T08:57:11;6.80;1.00
17178;DHT22;8704;52.006;4.374;2023-03-14T08:59:41;6.80;1.00
17178;DHT22;8704;52.006;4.374;2023-03-14T09:02:10;6.90;1.00
17178;DHT22;8704;52.006;4.374;2023-03-14T09:04:39;6.90;1.00
17178;DHT22;8704;52.006;4.374;2023-03-14T09:07:07;7.00;1.00
17178;DHT22;8704;52.006;4.374;2023-03-14T09:09:35;7.00;1.00
17178;DHT22;8704;52.006;4.374;2023-03-14T09:12:04;7.20;1.00
17178;DHT22;8704;52.006;4.374;2023-03-14T09:14:32;7.10;99.90
17178;DHT22;8704;52.006;4.374;2023-03-14T09:17:03;7.20;99.90
17178;DHT22;8704;52.006;4.374;2023-03-14T09:19:31;7.20;99.90
17178;DHT22;8704;52.006;4.374;2023-03-14T09:21:59;7.20;99.90
17178;DHT22;8704;52.006;4.374;2023-03-14T09:24:27;7.20;99.90
17178;DHT22;8704;52.006;4.374;2023-03-14T09:26:55;7.30;99.90
17178;DHT22;8704;52.006;4.374;2023-03-14T09:29:23;7.20;99.90
17178;DHT22;8704;52.006;4.374;2023-03-14T09:31:52;7.20;99.90
17178;DHT22;8704;52.006;4.374;2023-03-14T09:34:21;7.10;99.90
17178;DHT22;8704;52.006;4.374;2023-03-14T09:36:49;7.00;99.90
17178;DHT22;8704;52.006;4.374;2023-03-14T09:39:18;6.90;99.90
17178;DHT22;8704;52.006;4.374;2023-03-14T09:41:48;7.80;99.90
17178;DHT22;8704;52.006;4.374;2023-03-14T09:44:21;6.70;99.90
17178;DHT22;8704;52.006;4.374;2023-03-14T09:46:52;6.70;99.90
17178;DHT22;8704;52.006;4.374;2023-03-14T09:49:26;6.80;99.90
17178;DHT22;8704;52.006;4.374;2023-03-14T09:51:57;6.90;99.90
17178;DHT22;8704;52.006;4.374;2023-03-14T09:54:31;7.10;1.00
17178;DHT22;8704;52.006;4.374;2023-03-14T09:57:03;7.20;99.90
17178;DHT22;8704;52.006;4.374;2023-03-14T09:59:31;7.20;99.90
17178;DHT22;8704;52.006;4.374;2023-03-14T10:02:02;7.40;99.90
17178;DHT22;8704;52.006;4.374;2023-03-14T10:04:42;7.40;99.90
17178;DHT22;8704;52.006;4.374;2023-03-14T10:07:14;7.50;99.90
17178;DHT22;8704;52.006;4.374;2023-03-14T10:09:44;7.60;99.90
17178;DHT22;8704;52.006;4.374;2023-03-14T10:12:12;7.50;99.90
17178;DHT22;8704;52.006;4.374;2023-03-14T10:14:47;7.50;99.90
17178;DHT22;8704;52.006;4.374;2023-03-14T10:17:18;7.40;99.90
17178;DHT22;8704;52.006;4.374;2023-03-14T10:19:56;7.50;99.90
17178;DHT22;8704;52.006;4.374;2023-03-14T10:22:26;7.50;99.90
17178;DHT22;8704;52.006;4.374;2023-03-14T10:24:57;7.60;99.90
17178;DHT22;8704;52.006;4.374;2023-03-14T10:27:29;7.60;99.90
17178;DHT22;8704;52.006;4.374;2023-03-14T10:29:59;7.60;37.50
17178;DHT22;8704;52.006;4.374;2023-03-14T10:32:32;7.60;33.20
17178;DHT22;8704;52.006;4.374;2023-03-14T10:37:52;7.70;1.00
17178;DHT22;8704;52.006;4.374;2023-03-14T10:40:25;7.70;1.00
17178;DHT22;8704;52.006;4.374;2023-03-14T10:42:54;7.60;1.00
17178;DHT22;8704;52.006;4.374;2023-03-14T10:45:30;7.60;1.00
17178;DHT22;8704;52.006;4.374;2023-03-14T10:48:05;7.60;1.00
17178;DHT22;8704;52.006;4.374;2023-03-14T10:50:35;7.50;1.00
17178;DHT22;8704;52.006;4.374;2023-03-14T10:53:04;7.60;1.00
17178;DHT22;8704;52.006;4.374;2023-03-14T10:55:40;7.60;1.00
17178;DHT22;8704;52.006;4.374;2023-03-14T10:58:23;7.70;1.00
17178;DHT22;8704;52.006;4.374;2023-03-14T11:00:57;7.70;1.00
17178;DHT22;8704;52.006;4.374;2023-03-14T11:03:31;7.70;1.00
17178;DHT22;8704;52.006;4.374;2023-03-14T11:06:08;7.70;1.00
17178;DHT22;8704;52.006;4.374;2023-03-14T11:08:45;7.60;1.00
17178;DHT22;8704;52.006;4.374;2023-03-14T11:11:18;7.90;1.00
17178;DHT22;8704;52.006;4.374;2023-03-14T11:13:58;7.90;1.00
17178;DHT22;8704;52.006;4.374;2023-03-14T11:16:37;7.90;1.00
17178;DHT22;8704;52.006;4.374;2023-03-14T11:19:32;7.90;1.00
17178;DHT22;8704;52.006;4.374;2023-03-14T11:22:07;8.00;1.00
17178;DHT22;8704;52.006;4.374;2023-03-14T11:24:49;8.10;1.00
17178;DHT22;8704;52.006;4.374;2023-03-14T11:27:26;8.10;1.00
17178;DHT22;8704;52.006;4.374;2023-03-14T11:30:01;8.30;1.00
17178;DHT22;8704;52.006;4.374;2023-03-14T11:32:43;8.20;1.00
17178;DHT22;8704;52.006;4.374;2023-03-14T11:35:19;8.30;1.00
17178;DHT22;8704;52.006;4.374;2023-03-14T11:37:55;8.30;1.00
17178;DHT22;8704;52.006;4.374;2023-03-14T11:40:27;8.50;1.00
17178;DHT22;8704;52.006;4.374;2023-03-14T11:43:00;8.50;1.00
17178;DHT22;8704;52.006;4.374;2023-03-14T11:45:32;8.50;1.00
17178;DHT22;8704;52.006;4.374;2023-03-14T11:48:18;8.70;1.00
17178;DHT22;8704;52.006;4.374;2023-03-14T11:50:50;8.70;1.00
17178;DHT22;8704;52.006;4.374;2023-03-14T11:53:28;8.70;1.00
17178;DHT22;8704;52.006;4.374;2023-03-14T11:55:57;8.80;1.00
17178;DHT22;8704;52.006;4.374;2023-03-14T11:58:28;8.70;1.00
17178;DHT22;8704;52.006;4.374;2023-03-14T12:00:57;8.70;1.00
17178;DHT22;8704;52.006;4.374;2023-03-14T12:03:38;8.70;1.00
17178;DHT22;8704;52.006;4.374;2023-03-14T12:06:15;8.90;1.00
17178;DHT22;8704;52.006;4.374;2023-03-14T12:08:50;8.90;1.00
17178;DHT22;8704;52.006;4.374;2023-03-14T12:11:30;8.80;1.00
17178;DHT22;8704;52.006;4.374;2023-03-14T12:14:00;8.80;1.00
17178;DHT22;8704;52.006;4.374;2023-03-14T12:16:34;9.00;1.00
17178;DHT22;8704;52.006;4.374;2023-03-14T12:19:27;9.00;1.00
17178;DHT22;8704;52.006;4.374;2023-03-14T12:21:59;9.00;1.00
17178;DHT22;8704;52.006;4.374;2023-03-14T12:24:31;9.10;1.00
17178;DHT22;8704;52.006;4.374;2023-03-14T12:27:02;9.40;1.00
17178;DHT22;8704;52.006;4.374;2023-03-14T12:29:31;9.70;1.00
17178;DHT22;8704;52.006;4.374;2023-03-14T12:32:23;9.80;1.00
17178;DHT22;8704;52.006;4.374;2023-03-14T12:34:51;9.50;1.00
17178;DHT22;8704;52.006;4.374;2023-03-14T12:37:26;9.70;1.00
17178;DHT22;8704;52.006;4.374;2023-03-14T12:40:13;10.50;1.00
17178;DHT22;8704;52.006;4.374;2023-03-14T12:42:54;9.60;1.00
17178;DHT22;8704;52.006;4.374;2023-03-14T12:45:26;9.80;1.00
17178;DHT22;8704;52.006;4.374;2023-03-14T12:48:02;9.70;1.00
17178;DHT22;8704;52.006;4.374;2023-03-14T12:50:35;10.00;1.00
17178;DHT22;8704;52.006;4.374;2023-03-14T12:53:27;9.70;1.00
17178;DHT22;8704;52.006;4.374;2023-03-14T12:56:06;9.50;1.00
17178;DHT22;8704;52.006;4.374;2023-03-14T12:58:39;9.80;1.00
17178;DHT22;8704;52.006;4.374;2023-03-14T13:01:18;10.00;1.00
17178;DHT22;8704;52.006;4.374;2023-03-14T13:03:50;9.90;1.00
17178;DHT22;8704;52.006;4.374;2023-03-14T13:06:46;9.80;1.00
17178;DHT22;8704;52.006;4.374;2023-03-14T13:12:29;9.60;1.00
17178;DHT22;8704;52.006;4.374;2023-03-14T13:15:00;9.30;1.00
17178;DHT22;8704;52.006;4.374;2023-03-14T13:17:32;9.30;1.00
17178;DHT22;8704;52.006;4.374;2023-03-14T13:20:12;9.20;1.00
17178;DHT22;8704;52.006;4.374;2023-03-14T13:22:46;9.20;1.00
17178;DHT22;8704;52.006;4.374;2023-03-14T13:25:15;9.00;1.00
17178;DHT22;8704;52.006;4.374;2023-03-14T13:27:47;9.00;1.00
17178;DHT22;8704;52.006;4.374;2023-03-14T13:30:21;8.90;1.00
17178;DHT22;8704;52.006;4.374;2023-03-14T13:32:51;9.00;1.00
17178;DHT22;8704;52.006;4.374;2023-03-14T13:35:22;8.80;1.00
17178;DHT22;8704;52.006;4.374;2023-03-14T13:37:59;8.80;1.00
17178;DHT22;8704;52.006;4.374;2023-03-14T13:40:43;8.70;1.00
17178;DHT22;8704;52.006;4.374;2023-03-14T13:43:21;8.40;1.00
17178;DHT22;8704;52.006;4.374;2023-03-14T13:45:54;8.50;1.00
17178;DHT22;8704;52.006;4.374;2023-03-14T13:48:27;8.20;1.00
17178;DHT22;8704;52.006;4.374;2023-03-14T13:50:56;8.80;1.00
17178;DHT22;8704;52.006;4.374;2023-03-14T13:53:26;8.40;1.00
17178;DHT22;8704;52.006;4.374;2023-03-14T13:55:55;8.70;1.00
17178;DHT22;8704;52.006;4.374;2023-03-14T13:58:27;8.40;1.00
17178;DHT22;8704;52.006;4.374;2023-03-14T14:01:10;8.30;1.00
17178;DHT22;8704;52.006;4.374;2023-03-14T14:03:41;8.50;1.00
17178;DHT22;8704;52.006;4.374;2023-03-14T14:06:19;8.30;1.00
17178;DHT22;8704;52.006;4.374;2023-03-14T14:08:49;8.30;1.00
17178;DHT22;8704;52.006;4.374;2023-03-14T14:11:31;8.50;1.00
17178;DHT22;8704;52.006;4.374;2023-03-14T14:14:19;8.30;1.00
17178;DHT22;8704;52.006;4.374;2023-03-14T14:16:49;8.40;1.00
17178;DHT22;8704;52.006;4.374;2023-03-14T14:19:21;8.30;1.00
17178;DHT22;8704;52.006;4.374;2023-03-14T14:21:50;8.40;1.00
17178;DHT22;8704;52.006;4.374;2023-03-14T14:24:21;8.20;1.00
17178;DHT22;8704;52.006;4.374;2023-03-14T14:26:51;8.30;1.00
17178;DHT22;8704;52.006;4.374;2023-03-14T14:29:26;8.10;1.00
17178;DHT22;8704;52.006;4.374;2023-03-14T14:32:02;8.10;1.00
17178;DHT22;8704;52.006;4.374;2023-03-14T14:34:39;8.60;1.00
17178;DHT22;8704;52.006;4.374;2023-03-14T14:37:19;7.90;1.00
17178;DHT22;8704;52.006;4.374;2023-03-14T14:39:48;7.90;1.00
17178;DHT22;8704;52.006;4.374;2023-03-14T14:42:18;8.30;1.00
17178;DHT22;8704;52.006;4.374;2023-03-14T14:44:51;8.10;1.00
17178;DHT22;8704;52.006;4.374;2023-03-14T14:47:21;8.10;1.00
17178;DHT22;8704;52.006;4.374;2023-03-14T14:49:52;8.20;1.00
17178;DHT22;8704;52.006;4.374;2023-03-14T14:52:21;8.20;1.00
17178;DHT22;8704;52.006;4.374;2023-03-14T14:54:52;8.10;1.00
17178;DHT22;8704;52.006;4.374;2023-03-14T14:57:23;8.60;99.90
17178;DHT22;8704;52.006;4.374;2023-03-14T14:59:55;8.20;1.00
17178;DHT22;8704;52.006;4.374;2023-03-14T15:02:29;8.30;1.00
17178;DHT22;8704;52.006;4.374;2023-03-14T15:04:57;8.70;1.00
17178;DHT22;8704;52.006;4.374;2023-03-14T15:07:26;8.70;1.00
17178;DHT22;8704;52.006;4.374;2023-03-14T15:09:54;8.60;1.00
17178;DHT22;8704;52.006;4.374;2023-03-14T15:12:22;8.60;1.00
17178;DHT22;8704;52.006;4.374;2023-03-14T15:14:53;8.60;1.00
17178;DHT22;8704;52.006;4.374;2023-03-14T15:17:23;9.00;1.00
17178;DHT22;8704;52.006;4.374;2023-03-14T15:19:52;8.80;1.00
17178;DHT22;8704;52.006;4.374;2023-03-14T15:22:20;8.90;1.00
17178;DHT22;8704;52.006;4.374;2023-03-14T15:24:48;8.80;1.00
17178;DHT22;8704;52.006;4.374;2023-03-14T15:27:17;9.00;1.00
17178;DHT22;8704;52.006;4.374;2023-03-14T15:29:46;8.80;1.00
17178;DHT22;8704;52.006;4.374;2023-03-14T15:32:16;9.00;1.00
17178;DHT22;8704;52.006;4.374;2023-03-14T15:34:44;8.90;1.00
17178;DHT22;8704;52.006;4.374;2023-03-14T15:37:14;9.00;1.00
17178;DHT22;8704;52.006;4.374;2023-03-14T15:39:42;9.00;1.00
17178;DHT22;8704;52.006;4.374;2023-03-14T15:42:11;8.90;1.00
17178;DHT22;8704;52.006;4.374;2023-03-14T15:44:39;8.80;1.00
17178;DHT22;8704;52.006;4.374;2023-03-14T15:47:09;8.80;1.00
17178;DHT22;8704;52.006;4.374;2023-03-14T15:49:39;8.80;1.00
17178;DHT22;8704;52.006;4.374;2023-03-14T15:52:08;8.80;1.00
17178;DHT22;8704;52.006;4.374;2023-03-14T15:54:36;9.00;1.00
17178;DHT22;8704;52.006;4.374;2023-03-14T15:57:04;8.90;1.00
17178;DHT22;8704;52.006;4.374;2023-03-14T15:59:33;8.70;1.00
17178;DHT22;8704;52.006;4.374;2023-03-14T16:02:02;8.50;1.00
17178;DHT22;8704;52.006;4.374;2023-03-14T16:04:30;8.40;1.00
17178;DHT22;8704;52.006;4.374;2023-03-14T16:06:59;8.60;1.00
17178;DHT22;8704;52.006;4.374;2023-03-14T16:09:27;8.80;1.00
17178;DHT22;8704;52.006;4.374;2023-03-14T16:11:55;9.00;1.00
17178;DHT22;8704;52.006;4.374;2023-03-14T16:14:23;8.90;1.00
17178;DHT22;8704;52.006;4.374;2023-03-14T16:16:52;8.10;1.00
17178;DHT22;8704;52.006;4.374;2023-03-14T16:19:21;8.20;1.00
17178;DHT22;8704;52.006;4.374;2023-03-14T16:21:49;8.20;1.00
17178;DHT22;8704;52.006;4.374;2023-03-14T16:24:19;8.00;1.00
17178;DHT22;8704;52.006;4.374;2023-03-14T16:26:47;8.30;1.00
17178;DHT22;8704;52.006;4.374;2023-03-14T16:29:15;8.10;1.00
17178;DHT22;8704;52.006;4.374;2023-03-14T16:31:43;8.20;1.00
17178;DHT22;8704;52.006;4.374;2023-03-14T16:34:13;8.00;1.00
17178;DHT22;8704;52.006;4.374;2023-03-14T16:36:41;8.30;1.00
17178;DHT22;8704;52.006;4.374;2023-03-14T16:39:09;8.30;1.00